sensor_id;sensor_type;location;lat;lon;timestamp;pressure;altitude;pressure_sealevel;temperature;humidity
6565;BME280;3316;44.118;27.258;2023-03-01T00:01:11;102242.72;;;6.16;100.00
6565;BME280;3316;44.118;27.258;2023-03-01T00:03:37;102246.25;;;6.18;100.00
6565;BME280;3316;44.118;27.258;2023-03-01T00:06:03;102248.84;;;6.17;100.00
6565;BME280;3316;44.118;27.258;2023-03-01T00:08:29;102254.25;;;6.23;100.00
6565;BME280;3316;44.118;27.258;2023-03-01T00:11:07;102254.31;;;6.24;100.00
6565;BME280;3316;44.118;27.258;2023-03-01T00:13:34;102238.22;;;6.12;100.00
6565;BME280;3316;44.118;27.258;2023-03-01T00:16:05;102249.44;;;6.35;100.00
6565;BME280;3316;44.118;27.258;2023-03-01T00:18:31;102247.31;;;6.23;100.00
6565;BME280;3316;44.118;27.258;2023-03-01T00:20:57;102249.94;;;6.23;100.00
6565;BME280;3316;44.118;27.258;2023-03-01T00:23:23;102205.41;;;5.95;100.00
6565;BME280;3316;44.118;27.258;2023-03-01T00:25:48;102220.53;;;6.04;100.00
6565;BME280;3316;44.118;27.258;2023-03-01T00:28:14;102249.69;;;6.16;100.00
6565;BME280;3316;44.118;27.258;2023-03-01T00:30:40;102244.25;;;6.10;100.00
6565;BME280;3316;44.118;27.258;2023-03-01T00:33:05;102244.78;;;6.00;100.00
6565;BME280;3316;44.118;27.258;2023-03-01T00:35:32;102241.94;;;5.94;100.00
6565;BME280;3316;44.118;27.258;2023-03-01T00:37:58;102227.06;;;5.91;100.00
6565;BME280;3316;44.118;27.258;2023-03-01T00:40:24;102230.78;;;5.98;100.00
6565;BME280;3316;44.118;27.258;2023-03-01T00:42:50;102225.47;;;5.95;100.00
6565;BME280;3316;44.118;27.258;2023-03-01T00:45:15;102237.16;;;6.06;100.00
6565;BME280;3316;44.118;27.258;2023-03-01T00:47:41;102223.66;;;5.94;100.00
6565;BME280;3316;44.118;27.258;2023-03-01T00:50:07;102210.44;;;5.89;100.00
6565;BME280;3316;44.118;27.258;2023-03-01T00:52:33;102183.00;;;5.77;100.00
6565;BME280;3316;44.118;27.258;2023-03-01T00:54:58;102222.03;;;5.97;100.00
6565;BME280;3316;44.118;27.258;2023-03-01T00:57:24;102217.53;;;5.93;100.00
6565;BME280;3316;44.118;27.258;2023-03-01T00:59:49;102211.47;;;5.93;100.00
6565;BME280;3316;44.118;27.258;2023-03-01T01:02:15;102209.41;;;5.84;100.00
6565;BME280;3316;44.118;27.258;2023-03-01T01:04:40;102197.63;;;5.72;100.00
6565;BME280;3316;44.118;27.258;2023-03-01T01:07:06;102201.56;;;5.84;100.00
6565;BME280;3316;44.118;27.258;2023-03-01T01:09:31;102197.09;;;5.82;100.00
6565;BME280;3316;44.118;27.258;2023-03-01T01:11:57;102184.75;;;5.78;100.00
6565;BME280;3316;44.118;27.258;2023-03-01T01:14:22;102175.78;;;5.70;100.00
6565;BME280;3316;44.118;27.258;2023-03-01T01:16:48;102172.66;;;5.80;100.00
6565;BME280;3316;44.118;27.258;2023-03-01T01:19:14;102188.59;;;5.87;100.00
6565;BME280;3316;44.118;27.258;2023-03-01T01:21:40;102187.75;;;5.87;100.00
6565;BME280;3316;44.118;27.258;2023-03-01T01:24:08;102183.66;;;5.95;100.00
6565;BME280;3316;44.118;27.258;2023-03-01T01:26:34;102179.34;;;5.97;100.00
6565;BME280;3316;44.118;27.258;2023-03-01T01:29:01;102171.47;;;5.95;100.00
6565;BME280;3316;44.118;27.258;2023-03-01T01:31:28;102180.25;;;5.97;100.00
6565;BME280;3316;44.118;27.258;2023-03-01T01:33:55;102183.09;;;6.05;100.00
6565;BME280;3316;44.118;27.258;2023-03-01T01:36:21;102164.69;;;6.00;100.00
6565;BME280;3316;44.118;27.258;2023-03-01T01:38:46;102178.19;;;6.14;100.00
6565;BME280;3316;44.118;27.258;2023-03-01T01:41:13;102190.13;;;6.06;100.00
6565;BME280;3316;44.118;27.258;2023-03-01T01:43:44;102168.03;;;5.96;100.00
6565;BME280;3316;44.118;27.258;2023-03-01T01:46:28;102177.81;;;6.03;100.00
6565;BME280;3316;44.118;27.258;2023-03-01T01:49:00;102164.44;;;5.93;100.00
6565;BME280;3316;44.118;27.258;2023-03-01T01:51:29;102173.28;;;5.98;100.00
6565;BME280;3316;44.118;27.258;2023-03-01T01:54:10;102174.22;;;6.00;100.00
6565;BME280;3316;44.118;27.258;2023-03-01T01:56:37;102162.00;;;5.99;100.00
6565;BME280;3316;44.118;27.258;2023-03-01T01:59:05;102174.50;;;6.09;100.00
6565;BME280;3316;44.118;27.258;2023-03-01T02:01:31;102173.38;;;6.01;100.00
6565;BME280;3316;44.118;27.258;2023-03-01T02:03:57;102185.25;;;5.91;100.00
6565;BME280;3316;44.118;27.258;2023-03-01T02:06:41;102174.75;;;5.90;100.00
6565;BME280;3316;44.118;27.258;2023-03-01T02:09:14;102163.38;;;5.88;100.00
6565;BME280;3316;44.118;27.258;2023-03-01T02:11:41;102164.03;;;5.82;100.00
6565;BME280;3316;44.118;27.258;2023-03-01T02:14:07;102155.38;;;5.83;100.00
6565;BME280;3316;44.118;27.258;2023-03-01T02:16:32;102161.63;;;5.87;100.00
6565;BME280;3316;44.118;27.258;2023-03-01T02:18:59;102148.63;;;5.90;100.00
6565;BME280;3316;44.118;27.258;2023-03-01T02:21:50;102155.91;;;5.98;100.00
6565;BME280;3316;44.118;27.258;2023-03-01T02:24:49;102151.66;;;6.02;100.00
6565;BME280;3316;44.118;27.258;2023-03-01T02:27:09;102152.47;;;6.01;100.00
6565;BME280;3316;44.118;27.258;2023-03-01T02:29:35;102119.75;;;5.85;100.00
6565;BME280;3316;44.118;27.258;2023-03-01T02:32:02;102143.38;;;5.88;100.00
6565;BME280;3316;44.118;27.258;2023-03-01T02:34:30;102126.75;;;5.86;100.00
6565;BME280;3316;44.118;27.258;2023-03-01T02:37:01;102114.31;;;5.79;100.00
6565;BME280;3316;44.118;27.258;2023-03-01T02:39:45;102119.75;;;5.85;100.00
6565;BME280;3316;44.118;27.258;2023-03-01T02:42:15;102123.13;;;5.83;100.00
6565;BME280;3316;44.118;27.258;2023-03-01T02:44:42;102120.63;;;5.86;100.00
6565;BME280;3316;44.118;27.258;2023-03-01T02:47:07;102093.09;;;5.70;100.00
6565;BME280;3316;44.118;27.258;2023-03-01T02:49:35;102109.38;;;5.87;100.00
6565;BME280;3316;44.118;27.258;2023-03-01T02:57:01;102118.69;;;5.80;100.00
6565;BME280;3316;44.118;27.258;2023-03-01T02:59:31;102124.38;;;5.94;100.00
6565;BME280;3316;44.118;27.258;2023-03-01T03:02:00;102109.88;;;5.77;100.00
6565;BME280;3316;44.118;27.258;2023-03-01T03:04:26;102119.81;;;5.87;100.00
6565;BME280;3316;44.118;27.258;2023-03-01T03:06:51;102127.66;;;5.87;100.00
6565;BME280;3316;44.118;27.258;2023-03-01T03:09:18;102116.50;;;5.92;100.00
6565;BME280;3316;44.118;27.258;2023-03-01T03:11:44;102113.84;;;5.91;100.00
6565;BME280;3316;44.118;27.258;2023-03-01T03:14:11;102105.22;;;5.93;100.00
6565;BME280;3316;44.118;27.258;2023-03-01T03:16:45;102106.84;;;5.90;100.00
6565;BME280;3316;44.118;27.258;2023-03-01T03:19:12;102103.28;;;5.88;100.00
6565;BME280;3316;44.118;27.258;2023-03-01T03:21:38;102105.00;;;5.87;100.00
6565;BME280;3316;44.118;27.258;2023-03-01T03:24:04;102098.00;;;5.85;100.00
6565;BME280;3316;44.118;27.258;2023-03-01T03:26:30;102084.53;;;5.74;100.00
6565;BME280;3316;44.118;27.258;2023-03-01T03:28:55;102091.72;;;5.81;100.00
6565;BME280;3316;44.118;27.258;2023-03-01T03:31:21;102103.06;;;5.82;100.00
6565;BME280;3316;44.118;27.258;2023-03-01T03:33:47;102101.56;;;5.88;100.00
6565;BME280;3316;44.118;27.258;2023-03-01T03:36:20;102103.34;;;5.89;100.00
6565;BME280;3316;44.118;27.258;2023-03-01T03:38:46;102095.38;;;5.85;100.00
6565;BME280;3316;44.118;27.258;2023-03-01T03:41:12;102042.28;;;5.59;100.00
6565;BME280;3316;44.118;27.258;2023-03-01T03:43:39;102095.41;;;5.86;100.00
6565;BME280;3316;44.118;27.258;2023-03-01T03:46:06;102115.41;;;5.86;100.00
6565;BME280;3316;44.118;27.258;2023-03-01T03:48:34;102126.81;;;5.88;100.00
6565;BME280;3316;44.118;27.258;2023-03-01T03:50:59;102085.72;;;5.57;100.00
6565;BME280;3316;44.118;27.258;2023-03-01T03:53:27;102122.25;;;5.82;100.00
6565;BME280;3316;44.118;27.258;2023-03-01T03:55:53;102124.94;;;5.84;100.00
6565;BME280;3316;44.118;27.258;2023-03-01T03:58:21;102084.13;;;5.62;100.00
6565;BME280;3316;44.118;27.258;2023-03-01T04:00:50;102109.88;;;5.77;100.00
6565;BME280;3316;44.118;27.258;2023-03-01T04:03:17;102124.19;;;5.88;100.00
6565;BME280;3316;44.118;27.258;2023-03-01T04:05:44;102108.19;;;5.79;100.00
6565;BME280;3316;44.118;27.258;2023-03-01T04:08:09;102107.31;;;5.78;100.00
6565;BME280;3316;44.118;27.258;2023-03-01T04:10:45;102125.91;;;5.87;100.00
6565;BME280;3316;44.118;27.258;2023-03-01T04:13:13;102119.88;;;5.88;100.00
6565;BME280;3316;44.118;27.258;2023-03-01T04:15:40;102117.28;;;5.90;100.00
6565;BME280;3316;44.118;27.258;2023-03-01T04:18:06;102101.66;;;5.91;100.00
6565;BME280;3316;44.118;27.258;2023-03-01T04:20:34;102116.34;;;5.88;100.00
6565;BME280;3316;44.118;27.258;2023-03-01T04:28:10;102089.69;;;5.71;100.00
6565;BME280;3316;44.118;27.258;2023-03-01T04:30:37;102104.72;;;5.80;100.00
6565;BME280;3316;44.118;27.258;2023-03-01T04:33:05;102105.63;;;5.80;100.00
6565;BME280;3316;44.118;27.258;2023-03-01T04:35:31;102102.16;;;5.81;100.00
6565;BME280;3316;44.118;27.258;2023-03-01T04:37:57;102087.63;;;5.88;100.00
6565;BME280;3316;44.118;27.258;2023-03-01T04:40:23;102095.47;;;5.88;100.00
6565;BME280;3316;44.118;27.258;2023-03-01T04:42:49;102093.75;;;5.88;100.00
6565;BME280;3316;44.118;27.258;2023-03-01T04:45:14;102103.34;;;5.89;100.00
6565;BME280;3316;44.118;27.258;2023-03-01T04:47:40;102108.69;;;5.92;100.00
6565;BME280;3316;44.118;27.258;2023-03-01T04:50:08;102105.09;;;5.89;100.00
6565;BME280;3316;44.118;27.258;2023-03-01T04:52:34;102067.69;;;5.65;100.00
6565;BME280;3316;44.118;27.258;2023-03-01T04:55:00;102117.34;;;5.91;100.00
6565;BME280;3316;44.118;27.258;2023-03-01T04:57:26;102075.53;;;5.65;100.00
6565;BME280;3316;44.118;27.258;2023-03-01T04:59:51;102116.34;;;5.88;100.00
6565;BME280;3316;44.118;27.258;2023-03-01T05:02:16;102120.03;;;5.93;100.00
6565;BME280;3316;44.118;27.258;2023-03-01T05:04:42;102112.84;;;5.87;100.00
6565;BME280;3316;44.118;27.258;2023-03-01T05:07:07;102112.75;;;5.84;100.00
6565;BME280;3316;44.118;27.258;2023-03-01T05:09:33;102130.47;;;5.93;100.00
6565;BME280;3316;44.118;27.258;2023-03-01T05:11:58;102135.03;;;6.00;100.00
6565;BME280;3316;44.118;27.258;2023-03-01T05:14:24;102117.50;;;5.96;100.00
6565;BME280;3316;44.118;27.258;2023-03-01T05:16:49;102122.50;;;5.90;100.00
6565;BME280;3316;44.118;27.258;2023-03-01T05:19:15;102120.53;;;5.83;100.00
6565;BME280;3316;44.118;27.258;2023-03-01T05:21:42;102122.25;;;5.82;100.00
6565;BME280;3316;44.118;27.258;2023-03-01T05:24:26;102114.41;;;5.82;100.00
6565;BME280;3316;44.118;27.258;2023-03-01T05:26:52;102124.78;;;5.79;100.00
6565;BME280;3316;44.118;27.258;2023-03-01T05:29:19;102106.22;;;5.72;100.00
6565;BME280;3316;44.118;27.258;2023-03-01T05:31:53;102112.31;;;5.72;100.00
6565;BME280;3316;44.118;27.258;2023-03-01T05:34:24;102126.44;;;5.77;100.00
6565;BME280;3316;44.118;27.258;2023-03-01T05:36:51;102128.38;;;5.83;100.00
6565;BME280;3316;44.118;27.258;2023-03-01T05:39:19;102135.56;;;5.90;100.00
6565;BME280;3316;44.118;27.258;2023-03-01T05:41:46;102131.72;;;6.05;100.00
6565;BME280;3316;44.118;27.258;2023-03-01T05:44:12;102113.75;;;5.88;100.00
6565;BME280;3316;44.118;27.258;2023-03-01T05:46:37;102147.31;;;6.02;100.00
6565;BME280;3316;44.118;27.258;2023-03-01T05:49:02;102144.75;;;6.04;100.00
6565;BME280;3316;44.118;27.258;2023-03-01T05:51:29;102142.91;;;6.01;100.00
6565;BME280;3316;44.118;27.258;2023-03-01T05:53:55;102156.09;;;6.04;100.00
6565;BME280;3316;44.118;27.258;2023-03-01T05:56:20;102169.25;;;6.07;100.00
6565;BME280;3316;44.118;27.258;2023-03-01T05:58:48;102166.63;;;6.07;100.00
6565;BME280;3316;44.118;27.258;2023-03-01T06:01:14;102171.88;;;6.07;100.00
6565;BME280;3316;44.118;27.258;2023-03-01T06:03:40;102184.78;;;6.03;100.00
6565;BME280;3316;44.118;27.258;2023-03-01T06:06:05;102163.63;;;5.95;100.00
6565;BME280;3316;44.118;27.258;2023-03-01T06:08:31;102178.75;;;6.05;100.00
6565;BME280;3316;44.118;27.258;2023-03-01T06:10:56;102176.38;;;6.13;100.00
6565;BME280;3316;44.118;27.258;2023-03-01T06:13:23;102171.81;;;6.06;100.00
6565;BME280;3316;44.118;27.258;2023-03-01T06:15:48;102171.38;;;6.19;100.00
6565;BME280;3316;44.118;27.258;2023-03-01T06:18:14;102179.97;;;6.16;100.00
6565;BME280;3316;44.118;27.258;2023-03-01T06:20:39;102189.81;;;6.23;100.00
6565;BME280;3316;44.118;27.258;2023-03-01T06:23:05;102193.94;;;6.17;100.00
6565;BME280;3316;44.118;27.258;2023-03-01T06:25:30;102178.69;;;6.02;100.00
6565;BME280;3316;44.118;27.258;2023-03-01T06:27:56;102179.88;;;6.12;100.00
6565;BME280;3316;44.118;27.258;2023-03-01T06:30:23;102169.94;;;6.02;100.00
6565;BME280;3316;44.118;27.258;2023-03-01T06:32:49;102182.72;;;6.19;100.00
6565;BME280;3316;44.118;27.258;2023-03-01T06:35:16;102168.31;;;6.05;100.00
6565;BME280;3316;44.118;27.258;2023-03-01T06:37:45;102152.59;;;6.04;100.00
6565;BME280;3316;44.118;27.258;2023-03-01T06:40:11;102157.81;;;6.04;100.00
6565;BME280;3316;44.118;27.258;2023-03-01T06:42:41;102155.16;;;6.02;100.00
6565;BME280;3316;44.118;27.258;2023-03-01T06:45:08;102143.81;;;6.02;100.00
6565;BME280;3316;44.118;27.258;2023-03-01T06:47:33;102150.91;;;6.06;100.00
6565;BME280;3316;44.118;27.258;2023-03-01T06:50:00;102093.50;;;5.82;100.00
6565;BME280;3316;44.118;27.258;2023-03-01T06:52:25;102141.09;;;5.99;100.00
6565;BME280;3316;44.118;27.258;2023-03-01T06:54:51;102103.06;;;5.82;100.00
6565;BME280;3316;44.118;27.258;2023-03-01T06:57:16;102144.72;;;6.02;100.00
6565;BME280;3316;44.118;27.258;2023-03-01T06:59:42;102130.47;;;5.93;100.00
6565;BME280;3316;44.118;27.258;2023-03-01T07:02:10;102105.63;;;5.80;100.00
6565;BME280;3316;44.118;27.258;2023-03-01T07:04:36;102150.22;;;6.11;100.00
6565;BME280;3316;44.118;27.258;2023-03-01T07:07:02;102161.53;;;6.10;100.00
6565;BME280;3316;44.118;27.258;2023-03-01T07:09:27;102143.16;;;6.09;100.00
6565;BME280;3316;44.118;27.258;2023-03-01T07:11:53;102152.28;;;6.21;100.00
6565;BME280;3316;44.118;27.258;2023-03-01T07:14:18;102152.38;;;6.24;100.00
6565;BME280;3316;44.118;27.258;2023-03-01T07:16:45;102137.50;;;6.22;100.00
6565;BME280;3316;44.118;27.258;2023-03-01T07:19:11;102152.56;;;6.30;100.00
6565;BME280;3316;44.118;27.258;2023-03-01T07:21:36;102159.19;;;6.48;100.00
6565;BME280;3316;44.118;27.258;2023-03-01T07:24:05;102093.19;;;5.98;100.00
6565;BME280;3316;44.118;27.258;2023-03-01T07:26:31;102159.66;;;6.35;100.00
6565;BME280;3316;44.118;27.258;2023-03-01T07:28:59;102139.50;;;6.30;100.00
6565;BME280;3316;44.118;27.258;2023-03-01T07:31:24;102150.47;;;6.47;100.00
6565;BME280;3316;44.118;27.258;2023-03-01T07:33:53;102136.59;;;6.50;100.00
6565;BME280;3316;44.118;27.258;2023-03-01T07:36:18;102117.19;;;6.42;100.00
6565;BME280;3316;44.118;27.258;2023-03-01T07:38:43;102153.69;;;6.67;100.00
6565;BME280;3316;44.118;27.258;2023-03-01T07:41:09;102145.78;;;6.65;100.00
6565;BME280;3316;44.118;27.258;2023-03-01T07:43:34;102150.22;;;6.68;100.00
6565;BME280;3316;44.118;27.258;2023-03-01T07:46:01;102150.38;;;6.72;100.00
6565;BME280;3316;44.118;27.258;2023-03-01T07:48:27;102152.97;;;6.72;100.00
6565;BME280;3316;44.118;27.258;2023-03-01T07:50:53;102132.47;;;6.58;100.00
6565;BME280;3316;44.118;27.258;2023-03-01T07:53:18;102123.06;;;6.63;100.00
6565;BME280;3316;44.118;27.258;2023-03-01T07:55:44;102150.47;;;6.77;100.00
6565;BME280;3316;44.118;27.258;2023-03-01T07:58:09;102149.91;;;6.87;100.00
6565;BME280;3316;44.118;27.258;2023-03-01T08:00:35;102153.22;;;6.81;100.00
6565;BME280;3316;44.118;27.258;2023-03-01T08:03:01;102154.91;;;6.79;100.00
6565;BME280;3316;44.118;27.258;2023-03-01T08:05:27;102162.50;;;6.70;100.00
6565;BME280;3316;44.118;27.258;2023-03-01T08:07:53;102167.00;;;6.74;100.00
6565;BME280;3316;44.118;27.258;2023-03-01T08:10:19;102177.34;;;6.71;100.00
6565;BME280;3316;44.118;27.258;2023-03-01T08:12:44;102181.91;;;6.49;100.00
6565;BME280;3316;44.118;27.258;2023-03-01T08:15:10;102181.84;;;6.47;100.00
6565;BME280;3316;44.118;27.258;2023-03-01T08:17:36;102186.38;;;6.53;100.00
6565;BME280;3316;44.118;27.258;2023-03-01T08:20:01;102174.94;;;6.49;100.00
6565;BME280;3316;44.118;27.258;2023-03-01T08:22:29;102168.16;;;6.56;100.00
6565;BME280;3316;44.118;27.258;2023-03-01T08:24:54;102169.91;;;6.55;100.00
6565;BME280;3316;44.118;27.258;2023-03-01T08:27:21;102150.41;;;6.46;100.00
6565;BME280;3316;44.118;27.258;2023-03-01T08:29:46;102169.28;;;6.64;100.00
6565;BME280;3316;44.118;27.258;2023-03-01T08:32:12;102168.56;;;6.69;100.00
6565;BME280;3316;44.118;27.258;2023-03-01T08:34:37;102134.66;;;6.43;100.00
6565;BME280;3316;44.118;27.258;2023-03-01T08:37:03;102178.28;;;6.73;100.00
6565;BME280;3316;44.118;27.258;2023-03-01T08:39:28;102180.78;;;6.69;100.00
6565;BME280;3316;44.118;27.258;2023-03-01T08:41:54;102172.03;;;6.68;100.00
6565;BME280;3316;44.118;27.258;2023-03-01T08:44:20;102172.31;;;6.77;100.00
6565;BME280;3316;44.118;27.258;2023-03-01T08:46:46;102164.09;;;6.65;100.00
6565;BME280;3316;44.118;27.258;2023-03-01T08:49:16;102180.78;;;6.69;100.00
6565;BME280;3316;44.118;27.258;2023-03-01T08:51:43;102179.66;;;6.61;100.00
6565;BME280;3316;44.118;27.258;2023-03-01T08:54:18;102192.44;;;6.80;100.00
6565;BME280;3316;44.118;27.258;2023-03-01T08:56:45;102183.66;;;6.78;100.00
6565;BME280;3316;44.118;27.258;2023-03-01T08:59:11;102178.78;;;6.90;100.00
6565;BME280;3316;44.118;27.258;2023-03-01T09:01:37;102185.59;;;6.85;100.00
6565;BME280;3316;44.118;27.258;2023-03-01T09:04:03;102190.19;;;6.92;100.00
6565;BME280;3316;44.118;27.258;2023-03-01T09:06:33;102188.25;;;7.16;100.00
6565;BME280;3316;44.118;27.258;2023-03-01T09:08:59;102179.56;;;7.17;100.00
6565;BME280;3316;44.118;27.258;2023-03-01T09:11:25;102175.22;;;7.17;100.00
6565;BME280;3316;44.118;27.258;2023-03-01T09:13:51;102170.81;;;7.16;100.00
6565;BME280;3316;44.118;27.258;2023-03-01T09:16:18;102179.22;;;7.05;100.00
6565;BME280;3316;44.118;27.258;2023-03-01T09:18:44;102181.16;;;7.12;100.00
6565;BME280;3316;44.118;27.258;2023-03-01T09:21:13;102174.41;;;7.20;100.00
6565;BME280;3316;44.118;27.258;2023-03-01T09:23:44;102155.28;;;7.22;100.00
6565;BME280;3316;44.118;27.258;2023-03-01T09:26:15;102159.00;;;7.31;100.00
6565;BME280;3316;44.118;27.258;2023-03-01T09:28:45;102154.84;;;7.37;100.00
6565;BME280;3316;44.118;27.258;2023-03-01T09:31:11;102161.19;;;7.47;100.00
6565;BME280;3316;44.118;27.258;2023-03-01T09:33:41;102150.88;;;7.53;100.00
6565;BME280;3316;44.118;27.258;2023-03-01T09:36:10;102151.81;;;7.55;100.00
6565;BME280;3316;44.118;27.258;2023-03-01T09:38:36;102156.16;;;7.54;100.00
6565;BME280;3316;44.118;27.258;2023-03-01T09:41:02;102152.97;;;7.33;100.00
6565;BME280;3316;44.118;27.258;2023-03-01T09:45:54;102153.97;;;7.38;100.00
6565;BME280;3316;44.118;27.258;2023-03-01T09:48:27;102161.69;;;7.34;100.00
6565;BME280;3316;44.118;27.258;2023-03-01T09:50:56;102146.75;;;7.30;100.00
6565;BME280;3316;44.118;27.258;2023-03-01T09:53:27;102147.81;;;7.36;100.00
6565;BME280;3316;44.118;27.258;2023-03-01T09:56:16;102146.19;;;7.41;100.00
6565;BME280;3316;44.118;27.258;2023-03-01T10:01:38;102139.31;;;7.45;100.00
6565;BME280;3316;44.118;27.258;2023-03-01T10:07:05;102139.16;;;7.39;100.00
6565;BME280;3316;44.118;27.258;2023-03-01T10:09:40;102125.88;;;7.31;100.00
6565;BME280;3316;44.118;27.258;2023-03-01T10:12:20;102137.63;;;7.47;100.00
6565;BME280;3316;44.118;27.258;2023-03-01T10:15:09;102133.06;;;7.40;100.00
6565;BME280;3316;44.118;27.258;2023-03-01T10:17:48;102130.03;;;7.57;100.00
6565;BME280;3316;44.118;27.258;2023-03-01T10:20:30;102121.66;;;7.70;100.00
6565;BME280;3316;44.118;27.258;2023-03-01T10:22:58;102120.34;;;7.89;100.00
6565;BME280;3316;44.118;27.258;2023-03-01T10:26:25;102108.75;;;7.78;100.00
6565;BME280;3316;44.118;27.258;2023-03-01T10:28:34;102111.44;;;7.47;100.00
6565;BME280;3316;44.118;27.258;2023-03-01T10:31:02;102116.53;;;7.41;100.00
6565;BME280;3316;44.118;27.258;2023-03-01T10:33:35;102098.22;;;7.42;100.00
6565;BME280;3316;44.118;27.258;2023-03-01T10:36:02;102106.63;;;7.63;100.00
6565;BME280;3316;44.118;27.258;2023-03-01T10:38:31;102098.72;;;7.62;100.00
6565;BME280;3316;44.118;27.258;2023-03-01T10:40:59;102098.38;;;7.48;100.00
6565;BME280;3316;44.118;27.258;2023-03-01T10:43:32;102082.38;;;7.38;100.00
6565;BME280;3316;44.118;27.258;2023-03-01T10:49:06;102088.28;;;7.63;100.00
6565;BME280;3316;44.118;27.258;2023-03-01T10:51:32;102073.31;;;7.59;100.00
6565;BME280;3316;44.118;27.258;2023-03-01T10:53:57;102094.44;;;7.65;100.00
6565;BME280;3316;44.118;27.258;2023-03-01T10:56:23;102090.34;;;7.76;100.00
6565;BME280;3316;44.118;27.258;2023-03-01T10:58:59;102089.81;;;7.91;100.00
6565;BME280;3316;44.118;27.258;2023-03-01T11:01:35;102070.44;;;7.84;100.00
6565;BME280;3316;44.118;27.258;2023-03-01T11:06:37;102091.66;;;7.93;100.00
6565;BME280;3316;44.118;27.258;2023-03-01T11:11:41;102084.66;;;7.58;100.00
6565;BME280;3316;44.118;27.258;2023-03-01T11:14:17;102074.25;;;7.97;100.00
6565;BME280;3316;44.118;27.258;2023-03-01T11:16:47;102078.88;;;8.08;100.00
6565;BME280;3316;44.118;27.258;2023-03-01T11:19:17;102081.53;;;8.10;100.00
6565;BME280;3316;44.118;27.258;2023-03-01T11:24:19;102065.00;;;7.41;100.00
6565;BME280;3316;44.118;27.258;2023-03-01T11:26:50;102045.03;;;7.45;100.00
6565;BME280;3316;44.118;27.258;2023-03-01T11:30:03;102043.53;;;7.54;100.00
6565;BME280;3316;44.118;27.258;2023-03-01T11:32:23;102039.41;;;7.30;100.00
6565;BME280;3316;44.118;27.258;2023-03-01T11:35:35;102039.22;;;7.56;100.00
6565;BME280;3316;44.118;27.258;2023-03-01T11:40:52;102000.19;;;7.31;100.00
6565;BME280;3316;44.118;27.258;2023-03-01T11:49:16;102032.63;;;7.73;100.00
6565;BME280;3316;44.118;27.258;2023-03-01T11:56:55;102009.47;;;7.54;100.00
6565;BME280;3316;44.118;27.258;2023-03-01T12:10:31;101989.63;;;7.28;100.00
6565;BME280;3316;44.118;27.258;2023-03-01T12:13:23;101985.41;;;7.33;100.00
6565;BME280;3316;44.118;27.258;2023-03-01T12:26:35;101977.34;;;7.26;100.00
6565;BME280;3316;44.118;27.258;2023-03-01T12:29:25;101966.84;;;6.90;100.00
6565;BME280;3316;44.118;27.258;2023-03-01T12:37:56;101978.84;;;7.16;100.00
6565;BME280;3316;44.118;27.258;2023-03-01T12:46:25;101975.22;;;7.09;100.00
6565;BME280;3316;44.118;27.258;2023-03-01T12:49:08;101980.78;;;7.23;100.00
6565;BME280;3316;44.118;27.258;2023-03-01T12:51:36;101973.44;;;7.44;100.00
6565;BME280;3316;44.118;27.258;2023-03-01T12:54:33;101955.34;;;7.17;100.00
6565;BME280;3316;44.118;27.258;2023-03-01T12:57:09;101973.63;;;7.16;100.00
6565;BME280;3316;44.118;27.258;2023-03-01T13:02:52;101969.38;;;7.19;100.00
6565;BME280;3316;44.118;27.258;2023-03-01T13:10:33;101961.84;;;7.70;100.00
6565;BME280;3316;44.118;27.258;2023-03-01T13:13:21;101957.47;;;7.71;100.00
6565;BME280;3316;44.118;27.258;2023-03-01T13:15:47;101967.31;;;7.81;100.00
6565;BME280;3316;44.118;27.258;2023-03-01T13:20:48;101952.59;;;7.86;100.00
6565;BME280;3316;44.118;27.258;2023-03-01T13:31:56;101919.75;;;8.03;100.00
6565;BME280;3316;44.118;27.258;2023-03-01T13:34:44;101951.78;;;8.30;100.00
6565;BME280;3316;44.118;27.258;2023-03-01T13:37:18;101947.06;;;8.16;100.00
6565;BME280;3316;44.118;27.258;2023-03-01T13:39:44;101943.38;;;8.06;100.00
6565;BME280;3316;44.118;27.258;2023-03-01T13:42:40;101943.69;;;8.21;100.00
6565;BME280;3316;44.118;27.258;2023-03-01T13:45:36;101941.03;;;8.20;100.00
6565;BME280;3316;44.118;27.258;2023-03-01T13:48:22;101904.97;;;8.08;100.00
6565;BME280;3316;44.118;27.258;2023-03-01T13:50:52;101943.19;;;8.37;100.00
6565;BME280;3316;44.118;27.258;2023-03-01T13:53:22;101941.97;;;8.23;100.00
6565;BME280;3316;44.118;27.258;2023-03-01T13:55:58;101937.69;;;8.25;100.00
6565;BME280;3316;44.118;27.258;2023-03-01T13:58:30;101934.19;;;8.25;100.00
6565;BME280;3316;44.118;27.258;2023-03-01T14:01:05;101938.28;;;8.12;100.00
6565;BME280;3316;44.118;27.258;2023-03-01T14:03:34;101943.81;;;8.26;100.00
6565;BME280;3316;44.118;27.258;2023-03-01T14:08:35;101939.25;;;8.17;100.00
6565;BME280;3316;44.118;27.258;2023-03-01T14:14:08;101938.22;;;8.09;100.00
6565;BME280;3316;44.118;27.258;2023-03-01T14:19:15;101947.06;;;8.14;100.00
6565;BME280;3316;44.118;27.258;2023-03-01T14:21:46;101901.09;;;7.88;100.00
6565;BME280;3316;44.118;27.258;2023-03-01T14:24:20;101935.66;;;8.12;100.00
6565;BME280;3316;44.118;27.258;2023-03-01T14:26:46;101919.78;;;8.06;100.00
6565;BME280;3316;44.118;27.258;2023-03-01T14:29:37;101929.06;;;7.89;100.00
6565;BME280;3316;44.118;27.258;2023-03-01T14:32:19;101931.53;;;7.83;100.00
6565;BME280;3316;44.118;27.258;2023-03-01T14:34:47;101940.06;;;7.74;100.00
6565;BME280;3316;44.118;27.258;2023-03-01T14:37:33;101936.13;;;7.53;100.00
6565;BME280;3316;44.118;27.258;2023-03-01T14:40:01;101925.34;;;7.39;100.00
6565;BME280;3316;44.118;27.258;2023-03-01T14:42:34;101933.34;;;7.47;100.00
6565;BME280;3316;44.118;27.258;2023-03-01T14:45:01;101928.91;;;7.43;100.00
6565;BME280;3316;44.118;27.258;2023-03-01T14:47:30;101931.81;;;7.55;100.00
6565;BME280;3316;44.118;27.258;2023-03-01T14:50:02;101941.53;;;7.60;100.00
6565;BME280;3316;44.118;27.258;2023-03-01T14:53:03;101929.97;;;7.51;100.00
6565;BME280;3316;44.118;27.258;2023-03-01T14:55:41;101940.34;;;7.48;100.00